createdAt,value
2023-02-12T00:03:48.598Z,16.652762
2023-02-12T00:08:50.105Z,15.928324
2023-02-12T00:13:51.659Z,15.641898
2023-02-12T00:18:53.350Z,15.944662
2023-02-12T00:23:54.832Z,15.845536
2023-02-12T00:28:56.418Z,15.977148
2023-02-12T00:33:58.003Z,15.71877
2023-02-12T00:38:59.640Z,15.562096
2023-02-12T00:44:01.093Z,16.16974
2023-02-12T00:49:03.109Z,16.720108
2023-02-12T00:54:04.584Z,16.623818
2023-02-12T00:59:06.033Z,15.593604
2023-02-12T01:04:07.701Z,15.86125
2023-02-12T01:09:09.151Z,16.077236
2023-02-12T01:14:10.587Z,16.272936
2023-02-12T01:19:12.999Z,16.334284
2023-02-12T01:24:14.502Z,16.459626
2023-02-12T01:29:15.978Z,16.570232
2023-02-12T01:34:17.428Z,16.291296
2023-02-12T01:39:18.943Z,15.604378
2023-02-12T01:44:20.432Z,15.907766
2023-02-12T01:49:22.282Z,16.07151
2023-02-12T01:54:23.874Z,15.741376
2023-02-12T01:59:25.392Z,15.920562
2023-02-12T02:04:27.005Z,16.541804
2023-02-12T02:09:28.845Z,15.853216
2023-02-12T02:14:30.293Z,16.109722
2023-02-12T02:19:32.078Z,16.419556
2023-02-12T02:24:33.499Z,16.457062
2023-02-12T02:29:35.365Z,16.520974
2023-02-12T02:34:37.198Z,16.13374
2023-02-12T02:39:39.097Z,16.876796
2023-02-12T02:44:40.811Z,16.716932
2023-02-12T02:49:42.797Z,16.592038
2023-02-12T02:54:44.507Z,16.155628
2023-02-12T02:59:46.185Z,16.93125
2023-02-12T03:04:47.884Z,16.760898
2023-02-12T03:09:49.516Z,17.06145
2023-02-12T03:14:51.019Z,17.224312
2023-02-12T03:19:53.144Z,17.144876
2023-02-12T03:24:54.756Z,17.061898
2023-02-12T03:29:56.264Z,16.205754
2023-02-12T03:34:57.946Z,16.290414
2023-02-12T03:39:59.523Z,16.418226
2023-02-12T03:45:01.013Z,16.950234
2023-02-12T03:50:02.787Z,16.923312
2023-02-12T03:55:04.523Z,16.56935
2023-02-12T04:00:06.394Z,16.474458
2023-02-12T04:05:08.158Z,16.78455
2023-02-12T04:10:09.925Z,16.389092
2023-02-12T04:15:11.518Z,16.59079
2023-02-12T04:20:13.339Z,17.061722
2023-02-12T04:25:14.875Z,16.969218
2023-02-12T04:30:16.298Z,17.05704
2023-02-12T04:35:17.951Z,17.190958
2023-02-12T04:40:19.434Z,17.475892
2023-02-12T04:45:21.156Z,17.42928
2023-02-12T04:50:23.259Z,17.193604
2023-02-12T04:55:25.034Z,16.871056
2023-02-12T05:00:26.885Z,17.320276
2023-02-12T05:05:28.789Z,17.86508
2023-02-12T05:10:30.659Z,17.747242
2023-02-12T05:15:32.647Z,18.126362
2023-02-12T05:20:34.787Z,18.531278
2023-02-12T05:25:36.699Z,18.29647
2023-02-12T05:30:38.559Z,18.32939
2023-02-12T05:35:40.512Z,18.49825
2023-02-12T05:40:42.080Z,18.383424
2023-02-12T05:45:43.508Z,17.914256
2023-02-12T05:50:45.276Z,17.90815
2023-02-12T05:55:46.740Z,17.711758
2023-02-12T06:00:48.476Z,18.326744
2023-02-12T06:05:49.903Z,18.278016
2023-02-12T06:10:51.609Z,18.282792
2023-02-12T06:15:53.532Z,18.510164
2023-02-12T06:20:55.345Z,18.852592
2023-02-12T06:25:57.220Z,18.82875
2023-02-12T06:30:59.411Z,18.399314
2023-02-12T06:36:01.405Z,18.701644
2023-02-12T06:41:03.172Z,18.612926
2023-02-12T06:46:04.746Z,19.41577
2023-02-12T06:51:06.886Z,19.255554
2023-02-12T06:56:08.776Z,19.8973
2023-02-12T07:01:10.508Z,19.83701
2023-02-12T07:06:12.504Z,20.872912
2023-02-12T07:11:14.340Z,20.639176
2023-02-12T07:16:16.304Z,21.976716
2023-02-12T07:21:18.391Z,21.136596
2023-02-12T07:26:20.228Z,20.75677
2023-02-12T07:31:22.214Z,21.281112
2023-02-12T07:36:24.254Z,21.9394
2023-02-12T07:41:26.077Z,21.456974
2023-02-12T07:46:27.915Z,21.99456
2023-02-12T07:51:29.979Z,21.560496
2023-02-12T07:56:31.883Z,22.114624
2023-02-12T08:01:33.732Z,22.533436
2023-02-12T08:06:35.750Z,22.31236
2023-02-12T08:11:37.631Z,22.768692
2023-02-12T08:16:39.564Z,22.583114
2023-02-12T08:21:41.795Z,23.142738
2023-02-12T08:26:43.556Z,24.536824
2023-02-12T08:31:45.104Z,23.334924
2023-02-12T08:36:46.684Z,23.470484
2023-02-12T08:41:48.501Z,23.028658
2023-02-12T08:46:50.133Z,23.847814
2023-02-12T08:51:52.136Z,23.814718
2023-02-12T08:56:53.896Z,24.85153
2023-02-12T09:01:56.037Z,25.074628
2023-02-12T09:06:58.053Z,25.062524
2023-02-12T09:11:59.964Z,24.867828
2023-02-12T09:17:01.863Z,25.90867
2023-02-12T09:22:03.776Z,25.674202
2023-02-12T09:27:05.595Z,25.571194
2023-02-12T09:32:07.433Z,25.098674
2023-02-12T09:37:09.015Z,25.675124
2023-02-12T09:42:10.449Z,26.839492
2023-02-12T09:47:12.119Z,24.604794
2023-02-12T09:52:13.955Z,24.245362
2023-02-12T09:57:15.860Z,24.388278
2023-02-12T10:02:17.738Z,24.92961
2023-02-12T10:07:19.467Z,24.036336
2023-02-12T10:12:21.215Z,24.552714
2023-02-12T10:17:22.985Z,23.958162
2023-02-12T10:22:24.957Z,22.667856
2023-02-12T10:27:26.605Z,22.281272
2023-02-12T10:32:28.364Z,22.277242
2023-02-12T10:37:30.491Z,22.092112
2023-02-12T10:42:32.278Z,21.30205
2023-02-12T10:47:34.130Z,21.071014
2023-02-12T10:52:36.559Z,20.284684
2023-02-12T10:57:38.543Z,21.131494
2023-02-12T11:02:40.362Z,20.79756
2023-02-12T11:07:42.319Z,21.782318
2023-02-12T11:12:43.849Z,21.101668
2023-02-12T11:17:45.388Z,20.630464
2023-02-12T11:22:47.235Z,20.184812
2023-02-12T11:27:48.844Z,19.419488
2023-02-12T11:32:50.295Z,19.692508
2023-02-12T11:37:51.893Z,19.411726
2023-02-12T11:42:53.442Z,20.900974
2023-02-12T11:47:54.885Z,21.799538
2023-02-12T11:52:56.784Z,21.385272
2023-02-12T11:57:58.515Z,21.332948
2023-02-12T12:03:00.007Z,21.756862
2023-02-12T12:08:01.551Z,20.906646
2023-02-12T12:13:03.031Z,21.217742
2023-02-12T12:18:04.506Z,20.356006
2023-02-12T12:23:06.325Z,21.045802
2023-02-12T12:28:07.957Z,22.262234
2023-02-12T12:33:09.459Z,22.685266
2023-02-12T12:38:11.077Z,23.00198
2023-02-12T12:43:12.723Z,24.748252
2023-02-12T12:48:14.170Z,23.982886
2023-02-12T12:53:15.791Z,25.9073
2023-02-12T12:58:17.573Z,24.648502
2023-02-12T13:03:19.317Z,25.937112
2023-02-12T13:08:21.090Z,25.504106
2023-02-12T13:13:22.571Z,25.62569
2023-02-12T13:18:24.068Z,26.196822
2023-02-12T13:23:25.797Z,26.1412
2023-02-12T13:28:27.402Z,27.46809
2023-02-12T13:33:29.329Z,25.830496
2023-02-12T13:38:30.918Z,26.029562
2023-02-12T13:43:32.426Z,26.128878
2023-02-12T13:48:34.378Z,25.410734
2023-02-12T13:53:36.168Z,26.216076
2023-02-12T13:58:37.937Z,26.038844
2023-02-12T14:03:39.497Z,25.974198
2023-02-12T14:08:41.274Z,25.91726
2023-02-12T14:13:43.021Z,24.769638
2023-02-12T14:18:44.592Z,25.685762
2023-02-12T14:23:46.581Z,24.968066
2023-02-12T14:28:48.114Z,26.178964
2023-02-12T14:33:49.553Z,25.870228
2023-02-12T14:38:51.128Z,25.668746
2023-02-12T14:43:52.779Z,25.933788
2023-02-12T14:48:54.562Z,25.883024
2023-02-12T14:53:56.447Z,25.838488
2023-02-12T14:58:58.204Z,26.360172
2023-02-12T15:03:59.678Z,25.847756
2023-02-12T15:09:01.165Z,24.893664
2023-02-12T15:14:02.642Z,24.5511
2023-02-12T15:19:04.469Z,25.93022
2023-02-12T15:24:06.118Z,24.543636
2023-02-12T15:29:07.690Z,25.096014
2023-02-12T15:34:09.166Z,24.7663
2023-02-12T15:39:10.844Z,24.679794
2023-02-12T15:44:12.559Z,24.006674
2023-02-12T15:49:14.306Z,24.442516
2023-02-12T15:54:15.957Z,23.68004
2023-02-12T15:59:17.691Z,23.912894
2023-02-12T16:04:19.377Z,24.212158
2023-02-12T16:09:21.085Z,23.692008
2023-02-12T16:14:22.725Z,23.361222
2023-02-12T16:19:24.506Z,22.88364
2023-02-12T16:24:26.476Z,23.12925
2023-02-12T16:29:28.107Z,22.970784
2023-02-12T16:34:29.727Z,22.064498
2023-02-12T16:39:31.327Z,22.321574
2023-02-12T16:44:32.902Z,21.672364
2023-02-12T16:49:34.543Z,21.781816
2023-02-12T16:54:36.443Z,20.86629
2023-02-12T16:59:38.167Z,20.757706
2023-02-12T17:04:39.978Z,20.779784
2023-02-12T17:09:41.797Z,19.746352
2023-02-12T17:14:43.541Z,19.756692
2023-02-12T17:19:45.238Z,20.036958
2023-02-12T17:24:47.085Z,19.377992
2023-02-12T17:29:48.613Z,19.46785
2023-02-12T17:34:50.241Z,19.425662
2023-02-12T17:39:52.016Z,19.861544
2023-02-12T17:44:53.655Z,19.572892
2023-02-12T17:49:55.140Z,19.685004
2023-02-12T17:54:56.775Z,19.584372
2023-02-12T17:59:58.318Z,19.87453
2023-02-12T18:05:00.122Z,19.841176
2023-02-12T18:10:02.089Z,20.338596
2023-02-12T18:15:03.730Z,20.103978
2023-02-12T18:20:05.492Z,19.977306
2023-02-12T18:25:07.449Z,20.538978
2023-02-12T18:30:09.201Z,19.634552
2023-02-12T18:35:10.941Z,20.232862
2023-02-12T18:40:12.697Z,20.23753
2023-02-12T18:45:14.488Z,19.76349
2023-02-12T18:50:16.086Z,20.35758
2023-02-12T18:55:18.084Z,19.46211
2023-02-12T19:00:19.925Z,19.38532
2023-02-12T19:05:21.661Z,18.882784
2023-02-12T19:10:23.512Z,19.201194
2023-02-12T19:15:25.600Z,18.420496
2023-02-12T19:20:27.473Z,18.77553
2023-02-12T19:25:29.479Z,18.727874
2023-02-12T19:30:31.235Z,18.678182
2023-02-12T19:35:33.024Z,19.251578
2023-02-12T19:40:34.853Z,18.483608
2023-02-12T19:45:36.622Z,18.459332
2023-02-12T19:50:38.422Z,18.15057
2023-02-12T19:55:40.406Z,18.258082
2023-02-12T20:00:42.234Z,17.936144
2023-02-12T20:05:43.992Z,18.503732
2023-02-12T20:10:45.745Z,18.224972
2023-02-12T20:15:47.263Z,18.021062
2023-02-12T20:20:48.921Z,18.066792
2023-02-12T20:25:50.753Z,18.201836
2023-02-12T20:30:52.420Z,17.771518
2023-02-12T20:35:54.213Z,17.736834
2023-02-12T20:40:56.255Z,18.879066
2023-02-12T20:51:00.308Z,18.178442
2023-02-12T20:56:02.277Z,18.530206
2023-02-12T21:01:03.941Z,18.476552
2023-02-12T21:06:05.702Z,18.509214
2023-02-12T21:11:07.677Z,18.529066
2023-02-12T21:16:09.524Z,19.061604
2023-02-12T21:21:11.303Z,18.640296
2023-02-12T21:26:13.255Z,19.15271
2023-02-12T21:31:15.098Z,17.737716
2023-02-12T21:36:16.941Z,18.10404
2023-02-12T21:41:18.603Z,18.594648
2023-02-12T21:46:20.559Z,18.315712
2023-02-12T21:51:22.384Z,17.76225
2023-02-12T21:56:24.411Z,16.944412
2023-02-12T22:01:26.137Z,16.944236
2023-02-12T22:06:27.903Z,17.333248
2023-02-12T22:11:29.666Z,17.4427
2023-02-12T22:16:31.477Z,18.057252
2023-02-12T22:21:33.299Z,18.489172
2023-02-12T22:26:35.433Z,18.14597
2023-02-12T22:31:37.332Z,18.611678
2023-02-12T22:36:39.217Z,17.605752
2023-02-12T22:41:41.559Z,18.281028
2023-02-12T22:46:43.448Z,18.395786
2023-02-12T22:51:44.904Z,18.186136
2023-02-12T22:56:46.917Z,17.51774
2023-02-12T23:01:48.345Z,17.85052
2023-02-12T23:06:49.825Z,18.431528
2023-02-12T23:11:51.323Z,18.794582
2023-02-12T23:16:52.901Z,18.360478
2023-02-12T23:21:54.552Z,18.422518
2023-02-12T23:26:56.520Z,18.03147
2023-02-12T23:31:58.007Z,17.443406
2023-02-12T23:36:59.842Z,18.331412
2023-02-12T23:42:01.546Z,18.01577
2023-02-12T23:47:03.393Z,17.394786
2023-02-12T23:52:04.871Z,17.553224
2023-02-12T23:57:06.645Z,17.69314
